createdAt,value
2022-11-29T00:01:34.461Z,100320.56
2022-11-29T00:04:03.196Z,100318.97
2022-11-29T00:06:32.803Z,100313.69
2022-11-29T00:09:06.089Z,100313.09
2022-11-29T00:11:54.816Z,100312.53
2022-11-29T00:14:23.793Z,100310.13
2022-11-29T00:16:53.352Z,100308.53
2022-11-29T00:19:21.586Z,100305.31
2022-11-29T00:21:49.998Z,100311.38
2022-11-29T00:24:18.485Z,100307.72
2022-11-29T00:26:48.116Z,100308.53
2022-11-29T00:29:16.323Z,100307.72
2022-11-29T00:31:44.832Z,100304.03
2022-11-29T00:34:13.485Z,100308.31
2022-11-29T00:36:41.841Z,100308.31
2022-11-29T00:39:11.645Z,100310.13
2022-11-29T00:41:40.081Z,100303.81
2022-11-29T00:44:12.834Z,100308.84
2022-11-29T00:46:43.575Z,100310.94
2022-11-29T00:49:11.532Z,100315.19
2022-11-29T00:51:39.661Z,100308.84
2022-11-29T00:54:07.646Z,100315.75
2022-11-29T00:56:35.806Z,100315.75
2022-11-29T00:59:03.730Z,100314.13
2022-11-29T01:01:33.270Z,100323.09
2022-11-29T01:04:01.453Z,100324.16
2022-11-29T01:06:29.604Z,100314.38
2022-11-29T01:08:57.505Z,100323.91
2022-11-29T01:11:27.711Z,100324.69
2022-11-29T01:13:57.345Z,100323.09
2022-11-29T01:16:26.124Z,100326.31
2022-11-29T01:18:55.438Z,100321.03
2022-11-29T01:21:25.014Z,100322.63
2022-11-29T01:23:53.754Z,100323.44
2022-11-29T01:26:23.761Z,100326.66
2022-11-29T01:28:53.234Z,100330.66
2022-11-29T01:31:23.969Z,100333.88
2022-11-29T01:33:55.733Z,100328.09
2022-11-29T01:36:24.408Z,100334.97
2022-11-29T01:38:52.571Z,100329.69
2022-11-29T01:41:23.447Z,100326.50
2022-11-29T01:44:00.495Z,100335.47
2022-11-29T01:46:30.017Z,100333.88
2022-11-29T01:49:03.093Z,100330.16
2022-11-29T01:51:31.897Z,100332.03
2022-11-29T01:53:59.930Z,100336.50
2022-11-29T01:56:29.489Z,100332.25
2022-11-29T01:58:57.498Z,100331.47
2022-11-29T02:01:26.581Z,100332.81
2022-11-29T02:03:54.883Z,100333.38
2022-11-29T02:06:24.610Z,100334.97
2022-11-29T02:08:52.558Z,100329.69
2022-11-29T02:11:48.689Z,100334.53
2022-11-29T02:14:31.105Z,100337.72
2022-11-29T02:17:04.413Z,100341.41
2022-11-29T02:19:57.487Z,100344.63
2022-11-29T02:22:32.008Z,100338.28
2022-11-29T02:25:11.700Z,100340.94
2022-11-29T02:28:13.802Z,100345.16
2022-11-29T02:30:56.363Z,100333.56
2022-11-29T02:33:43.493Z,100335.16
2022-11-29T02:36:26.332Z,100336.22
2022-11-29T02:39:09.014Z,100338.84
2022-11-29T02:41:50.703Z,100335.06
2022-11-29T02:44:52.121Z,100334.06
2022-11-29T02:47:27.185Z,100339.34
2022-11-29T02:50:12.424Z,100341.41
2022-11-29T02:52:46.690Z,100340.25
2022-11-29T02:55:19.181Z,100342.38
2022-11-29T02:57:53.168Z,100338.91
2022-11-29T03:00:22.763Z,100342.38
2022-11-29T03:02:56.900Z,100343.63
2022-11-29T03:05:33.546Z,100338.56
2022-11-29T03:08:07.199Z,100341.22
2022-11-29T03:10:40.704Z,100345.44
2022-11-29T03:13:14.673Z,100348.91
2022-11-29T03:15:53.807Z,100352.13
2022-11-29T03:18:33.840Z,100360.28
2022-11-29T03:21:09.934Z,100358.66
2022-11-29T03:23:39.280Z,100366.81
2022-11-29T03:26:10.317Z,100364.75
2022-11-29T03:28:40.159Z,100365.56
2022-11-29T03:31:14.151Z,100361.88
2022-11-29T03:33:48.921Z,100362.44
2022-11-29T03:36:25.034Z,100367.50
2022-11-29T03:38:53.808Z,100371.19
2022-11-29T03:41:26.487Z,100370.94
2022-11-29T03:43:58.524Z,100375.66
2022-11-29T03:46:31.726Z,100367.97
2022-11-29T03:49:03.794Z,100375.66
2022-11-29T03:51:40.333Z,100378.53
2022-11-29T03:54:11.414Z,100376.94
2022-11-29T03:56:41.339Z,100380.38
2022-11-29T03:59:22.997Z,100380.94
2022-11-29T04:02:03.775Z,100380.13
2022-11-29T04:04:55.765Z,100378.31
2022-11-29T04:07:40.498Z,100370.38
2022-11-29T04:10:16.368Z,100369.91
2022-11-29T04:13:21.751Z,100373.13
2022-11-29T04:16:07.461Z,100376.81
2022-11-29T04:19:00.220Z,100374.72
2022-11-29T04:21:45.645Z,100372.06
2022-11-29T04:24:44.532Z,100385.84
2022-11-29T04:27:30.845Z,100390.09
2022-11-29T04:30:07.748Z,100381.63
2022-11-29T04:32:52.625Z,100389.31
2022-11-29T04:35:36.621Z,100393.78
2022-11-29T04:38:16.408Z,100394.25
2022-11-29T04:40:57.292Z,100401.59
2022-11-29T04:43:49.673Z,100397.13
2022-11-29T04:46:31.366Z,100402.41
2022-11-29T04:49:26.889Z,100406.88
2022-11-29T04:52:08.086Z,100405.28
2022-11-29T04:54:40.489Z,100411.06
2022-11-29T04:57:14.103Z,100416.34
2022-11-29T04:59:45.672Z,100412.06
2022-11-29T05:02:28.923Z,100422.88
2022-11-29T05:05:00.494Z,100416.25
2022-11-29T05:07:32.402Z,100422.53
2022-11-29T05:10:07.872Z,100420.38
2022-11-29T05:12:43.500Z,100425.06
2022-11-29T05:15:25.007Z,100429.56
2022-11-29T05:18:04.555Z,100434.03
2022-11-29T05:20:40.072Z,100429.34
2022-11-29T05:23:23.410Z,100434.38
2022-11-29T05:25:55.624Z,100438.38
2022-11-29T05:28:31.185Z,100452.16
2022-11-29T05:31:17.226Z,100442.66
2022-11-29T05:34:21.791Z,100446.56
2022-11-29T05:36:57.256Z,100445.19
2022-11-29T05:39:36.854Z,100447.84
2022-11-29T05:42:18.573Z,100453.59
2022-11-29T05:44:50.464Z,100451.19
2022-11-29T05:47:26.879Z,100446.69
2022-11-29T05:50:05.550Z,100445.66
2022-11-29T05:52:43.209Z,100451.97
2022-11-29T05:55:25.903Z,100447.50
2022-11-29T05:57:57.798Z,100452.78
2022-11-29T06:00:30.233Z,100449.31
2022-11-29T06:03:03.626Z,100449.31
2022-11-29T06:05:36.399Z,100455.88
2022-11-29T06:08:09.006Z,100460.59
2022-11-29T06:10:40.893Z,100467.16
2022-11-29T06:13:21.832Z,100462.06
2022-11-29T06:16:15.826Z,100472.88
2022-11-29T06:18:59.941Z,100469.69
2022-11-29T06:21:34.365Z,100473.34
2022-11-29T06:24:25.896Z,100471.75
2022-11-29T06:27:09.213Z,100475.63
2022-11-29T06:29:45.296Z,100478.03
2022-11-29T06:32:22.286Z,100481.72
2022-11-29T06:34:54.427Z,100479.66
2022-11-29T06:37:25.392Z,100482.31
2022-11-29T06:39:55.236Z,100480.69
2022-11-29T06:42:23.527Z,100492.53
2022-11-29T06:44:52.064Z,100495.16
2022-11-29T06:47:29.483Z,100495.41
2022-11-29T06:49:59.865Z,100498.84
2022-11-29T06:52:37.868Z,100504.91
2022-11-29T06:55:15.702Z,100502.28
2022-11-29T06:57:51.955Z,100506.78
2022-11-29T07:00:22.467Z,100508.84
2022-11-29T07:03:07.540Z,100515.34
2022-11-29T07:05:36.521Z,100512.16
2022-11-29T07:08:07.667Z,100528.00
2022-11-29T07:10:38.523Z,100521.56
2022-11-29T07:13:07.034Z,100527.91
2022-11-29T07:15:36.369Z,100528.13
2022-11-29T07:18:14.556Z,100533.06
2022-11-29T07:20:52.349Z,100543.22
2022-11-29T07:23:28.086Z,100543.34
2022-11-29T07:26:05.003Z,100545.97
2022-11-29T07:28:43.159Z,100547.44
2022-11-29T07:31:17.617Z,100542.63
2022-11-29T07:33:53.721Z,100554.81
2022-11-29T07:36:30.505Z,100546.31
2022-11-29T07:39:09.158Z,100562.59
2022-11-29T07:41:42.009Z,100558.91
2022-11-29T07:44:21.226Z,100560.50
2022-11-29T07:46:49.239Z,100561.09
2022-11-29T07:49:18.898Z,100564.31
2022-11-29T07:51:46.844Z,100563.28
2022-11-29T07:54:18.272Z,100569.16
2022-11-29T07:56:46.214Z,100571.31
2022-11-29T07:59:14.644Z,100569.50
2022-11-29T08:01:42.834Z,100576.97
2022-11-29T08:04:11.432Z,100574.09
2022-11-29T08:06:40.957Z,100574.72
2022-11-29T08:09:09.112Z,100577.94
2022-11-29T08:11:37.209Z,100574.03
2022-11-29T08:14:06.453Z,100571.16
2022-11-29T08:16:34.912Z,100581.72
2022-11-29T08:19:03.313Z,100582.88
2022-11-29T08:21:31.249Z,100588.38
2022-11-29T08:24:00.740Z,100584.47
2022-11-29T08:26:31.574Z,100586.09
2022-11-29T08:29:00.308Z,100588.06
2022-11-29T08:31:28.227Z,100592.06
2022-11-29T08:33:56.393Z,100594.25
2022-11-29T08:36:24.423Z,100594.81
2022-11-29T08:38:59.259Z,100596.00
2022-11-29T08:41:32.140Z,100599.22
2022-11-29T08:44:00.348Z,100599.75
2022-11-29T08:46:48.327Z,100607.22
2022-11-29T08:49:16.781Z,100601.06
2022-11-29T08:51:44.964Z,100598.19
2022-11-29T08:54:12.239Z,100609.56
2022-11-29T08:59:29.575Z,100606.44
2022-11-29T09:01:57.528Z,100615.50
2022-11-29T09:04:25.893Z,100622.41
2022-11-29T09:06:53.793Z,100621.38
2022-11-29T09:09:22.144Z,100621.38
2022-11-29T09:11:51.730Z,100629.88
2022-11-29T09:14:22.899Z,100628.84
2022-11-29T09:16:51.338Z,100624.03
2022-11-29T09:19:19.736Z,100636.53
2022-11-29T09:21:47.652Z,100636.53
2022-11-29T09:24:15.968Z,100642.16
2022-11-29T09:26:46.835Z,100633.66
2022-11-29T09:29:17.763Z,100639.66
2022-11-29T09:31:45.913Z,100637.59
2022-11-29T09:34:14.674Z,100649.53
2022-11-29T09:36:43.969Z,100649.75
2022-11-29T09:39:13.246Z,100642.88
2022-11-29T09:41:52.924Z,100659.31
2022-11-29T09:44:29.794Z,100651.38
2022-11-29T09:47:03.160Z,100650.91
2022-11-29T09:49:43.064Z,100661.03
2022-11-29T09:52:15.923Z,100658.16
2022-11-29T09:54:56.624Z,100656.31
2022-11-29T09:57:26.970Z,100657.78
2022-11-29T09:59:59.321Z,100663.56
2022-11-29T10:02:34.027Z,100661.94
2022-11-29T10:05:08.243Z,100669.06
2022-11-29T10:07:39.490Z,100661.94
2022-11-29T10:10:12.407Z,100661.50
2022-11-29T10:12:43.947Z,100664.91
2022-11-29T10:15:17.762Z,100661.03
2022-11-29T10:17:49.679Z,100664.25
2022-11-29T10:20:19.540Z,100658.03
2022-11-29T10:22:53.405Z,100659.16
2022-11-29T10:25:25.767Z,100659.28
2022-11-29T10:27:54.382Z,100664.31
2022-11-29T10:30:24.255Z,100666.31
2022-11-29T10:32:57.092Z,100666.31
2022-11-29T10:35:25.513Z,100660.44
2022-11-29T10:38:22.759Z,100657.44
2022-11-29T10:40:47.094Z,100652.97
2022-11-29T10:43:15.078Z,100656.19
2022-11-29T10:45:50.318Z,100656.19
2022-11-29T10:48:19.888Z,100654.09
2022-11-29T10:50:49.923Z,100657.91
2022-11-29T10:53:19.965Z,100654.31
2022-11-29T10:55:51.665Z,100652.84
2022-11-29T10:58:27.992Z,100654.44
2022-11-29T11:01:00.815Z,100650.53
2022-11-29T11:03:39.178Z,100655.00
2022-11-29T11:06:10.617Z,100655.13
2022-11-29T11:08:39.519Z,100654.06
2022-11-29T11:11:08.579Z,100652.81
2022-11-29T11:13:37.159Z,100646.25
2022-11-29T11:16:12.239Z,100646.56
2022-11-29T11:18:40.227Z,100644.28
2022-11-29T11:21:10.823Z,100650.69
2022-11-29T11:23:43.677Z,100649.19
2022-11-29T11:26:13.912Z,100650.31
2022-11-29T11:28:45.921Z,100655.94
2022-11-29T11:31:15.963Z,100650.41
2022-11-29T11:33:45.062Z,100655.47
2022-11-29T11:36:15.122Z,100657.88
2022-11-29T11:38:50.861Z,100657.88
2022-11-29T11:41:44.500Z,100658.69
2022-11-29T11:44:46.464Z,100657.09
2022-11-29T11:47:17.010Z,100661.59
2022-11-29T11:49:49.171Z,100666.28
2022-11-29T11:52:21.996Z,100666.88
2022-11-29T11:54:53.051Z,100664.69
2022-11-29T11:57:22.401Z,100665.75
2022-11-29T11:59:51.090Z,100671.03
2022-11-29T12:02:37.141Z,100679.66
2022-11-29T12:05:10.001Z,100676.22
2022-11-29T12:08:07.250Z,100680.47
2022-11-29T12:10:34.702Z,100674.38
2022-11-29T12:13:03.466Z,100672.31
2022-11-29T12:15:34.125Z,100673.13
2022-11-29T12:18:07.178Z,100682.19
2022-11-29T12:20:39.566Z,100677.94
2022-11-29T12:23:23.065Z,100680.81
2022-11-29T12:25:53.400Z,100679.44
2022-11-29T12:28:22.457Z,100686.25
2022-11-29T12:30:57.055Z,100683.50
2022-11-29T12:33:37.391Z,100687.19
2022-11-29T12:36:25.999Z,100678.66
2022-11-29T12:39:05.217Z,100683.97
2022-11-29T12:41:40.284Z,100689.25
2022-11-29T12:44:19.486Z,100691.66
2022-11-29T12:47:02.101Z,100692.47
2022-11-29T12:49:51.199Z,100688.78
2022-11-29T12:52:23.810Z,100697.28
2022-11-29T12:54:59.769Z,100689.91
2022-11-29T12:57:34.502Z,100694.75
2022-11-29T13:00:08.077Z,100692.09
2022-11-29T13:02:44.042Z,100693.13
2022-11-29T13:05:20.309Z,100686.25
2022-11-29T13:08:05.546Z,100694.75
2022-11-29T13:10:43.157Z,100693.47
2022-11-29T13:13:19.294Z,100691.06
2022-11-29T13:15:51.682Z,100694.28
2022-11-29T13:18:23.043Z,100695.31
2022-11-29T13:20:57.917Z,100699.56
2022-11-29T13:23:45.809Z,100695.66
2022-11-29T13:26:19.885Z,100697.81
2022-11-29T13:28:47.936Z,100707.63
2022-11-29T13:31:19.513Z,100702.81
2022-11-29T13:33:57.837Z,100710.16
2022-11-29T13:36:33.152Z,100709.59
2022-11-29T13:39:09.052Z,100699.38
2022-11-29T13:41:42.222Z,100702.81
2022-11-29T13:44:16.989Z,100701.91
2022-11-29T13:46:48.153Z,100710.88
2022-11-29T13:49:22.203Z,100707.19
2022-11-29T13:52:05.056Z,100701.09
2022-11-29T13:54:34.309Z,100707.19
2022-11-29T13:57:04.119Z,100708.78
2022-11-29T13:59:33.636Z,100712.00
2022-11-29T14:02:01.934Z,100705.13
2022-11-29T14:04:34.149Z,100710.41
2022-11-29T14:07:06.586Z,100714.06
2022-11-29T14:09:37.953Z,100710.41
2022-11-29T14:12:36.685Z,100717.78
2022-11-29T14:15:16.010Z,100719.38
2022-11-29T14:17:53.194Z,100714.06
2022-11-29T14:20:58.098Z,100716.19
2022-11-29T14:23:40.351Z,100718.25
2022-11-29T14:26:28.570Z,100723.53
2022-11-29T14:28:57.960Z,100727.19
2022-11-29T14:31:50.572Z,100730.88
2022-11-29T14:34:39.205Z,100725.59
2022-11-29T14:37:20.635Z,100729.28
2022-11-29T14:39:52.229Z,100739.06
2022-11-29T14:42:21.921Z,100743.53
2022-11-29T14:44:52.047Z,100738.72
2022-11-29T14:47:26.209Z,100744.59
2022-11-29T14:49:57.141Z,100748.03
2022-11-29T14:52:30.341Z,100749.28
2022-11-29T14:55:02.873Z,100744.00
2022-11-29T14:57:53.502Z,100748.72
2022-11-29T15:00:23.032Z,100750.56
2022-11-29T15:02:52.190Z,100751.81
2022-11-29T15:05:22.024Z,100751.81
2022-11-29T15:07:53.810Z,100754.47
2022-11-29T15:10:26.942Z,100754.69
2022-11-29T15:12:54.963Z,100761.03
2022-11-29T15:15:35.467Z,100757.00
2022-11-29T15:18:12.449Z,100759.28
2022-11-29T15:20:54.904Z,100768.50
2022-11-29T15:23:22.853Z,100772.75
2022-11-29T15:25:54.373Z,100778.03
2022-11-29T15:28:23.999Z,100768.28
2022-11-29T15:31:01.950Z,100774.38
2022-11-29T15:33:30.613Z,100772.50
2022-11-29T15:36:06.422Z,100775.38
2022-11-29T15:38:42.765Z,100774.38
2022-11-29T15:41:22.169Z,100776.44
2022-11-29T15:43:53.459Z,100781.72
2022-11-29T15:46:22.911Z,100774.84
2022-11-29T15:48:50.851Z,100773.22
2022-11-29T15:51:25.027Z,100783.78
2022-11-29T15:54:11.792Z,100783.00
2022-11-29T15:56:45.883Z,100791.94
2022-11-29T15:59:19.804Z,100792.19
2022-11-29T16:01:49.477Z,100794.00
2022-11-29T16:04:19.977Z,100797.47
2022-11-29T16:06:48.977Z,100796.88
2022-11-29T16:09:18.936Z,100799.75
2022-11-29T16:11:48.869Z,100798.97
2022-11-29T16:14:21.865Z,100798.97
2022-11-29T16:16:53.262Z,100798.97
2022-11-29T16:19:32.758Z,100796.88
2022-11-29T16:22:15.840Z,100801.16
2022-11-29T16:24:53.539Z,100794.47
2022-11-29T16:27:23.688Z,100795.28
2022-11-29T16:29:52.640Z,100796.88
2022-11-29T16:32:26.132Z,100799.75
2022-11-29T16:34:54.527Z,100798.50
2022-11-29T16:37:24.085Z,100805.41
2022-11-29T16:39:53.645Z,100807.00
2022-11-29T16:42:26.056Z,100807.00
2022-11-29T16:45:21.327Z,100810.22
2022-11-29T16:47:52.749Z,100813.91
2022-11-29T16:50:22.228Z,100806.22
2022-11-29T16:52:56.137Z,100810.69
2022-11-29T16:55:24.821Z,100809.66
2022-11-29T16:57:54.288Z,100809.66
2022-11-29T17:00:25.401Z,100808.63
2022-11-29T17:02:53.641Z,100809.22
2022-11-29T17:05:21.974Z,100813.47
2022-11-29T17:07:50.475Z,100808.97
2022-11-29T17:10:20.835Z,100811.84
2022-11-29T17:12:50.075Z,100812.28
2022-11-29T17:15:19.386Z,100813.78
2022-11-29T17:17:47.734Z,100811.84
2022-11-29T17:20:15.780Z,100811.72
2022-11-29T17:22:43.949Z,100817.47
2022-11-29T17:25:12.344Z,100822.84
2022-11-29T17:27:40.910Z,100825.72
2022-11-29T17:30:11.211Z,100829.38
2022-11-29T17:32:40.886Z,100831.22
2022-11-29T17:35:09.339Z,100832.25
2022-11-29T17:37:37.554Z,100830.66
2022-11-29T17:40:06.250Z,100830.66
2022-11-29T17:42:34.550Z,100833.28
2022-11-29T17:45:02.549Z,100835.13
2022-11-29T17:47:30.721Z,100832.72
2022-11-29T17:50:00.453Z,100841.69
2022-11-29T17:52:28.655Z,100845.34
2022-11-29T17:54:56.526Z,100830.38
2022-11-29T17:57:24.878Z,100842.09
2022-11-29T17:59:52.849Z,100840.50
2022-11-29T18:02:21.015Z,100847.38
2022-11-29T18:04:48.945Z,100853.50
2022-11-29T18:07:18.464Z,100859.59
2022-11-29T18:09:47.350Z,100859.00
2022-11-29T18:12:15.803Z,100863.25
2022-11-29T18:14:43.977Z,100864.88
2022-11-29T18:17:12.538Z,100866.94
2022-11-29T18:19:40.523Z,100870.94
2022-11-29T18:22:09.152Z,100862.22
2022-11-29T18:24:41.248Z,100861.19
2022-11-29T18:27:09.478Z,100861.41
2022-11-29T18:29:45.922Z,100861.19
2022-11-29T18:32:14.155Z,100864.88
2022-11-29T18:34:42.169Z,100866.69
2022-11-29T18:37:15.989Z,100870.63
2022-11-29T18:39:49.966Z,100871.03
2022-11-29T18:42:18.189Z,100876.22
2022-11-29T18:44:46.225Z,100871.13
2022-11-29T18:47:14.604Z,100886.41
2022-11-29T18:49:42.502Z,100885.00
2022-11-29T18:52:10.617Z,100882.38
2022-11-29T18:54:38.560Z,100880.19
2022-11-29T18:57:08.091Z,100880.19
2022-11-29T18:59:35.986Z,100883.88
2022-11-29T19:02:04.192Z,100888.09
2022-11-29T19:04:32.146Z,100883.03
2022-11-29T19:07:00.285Z,100887.50
2022-11-29T19:09:28.222Z,100885.09
2022-11-29T19:11:56.352Z,100887.97
2022-11-29T19:14:25.575Z,100887.97
2022-11-29T19:16:53.980Z,100889.59
2022-11-29T19:19:21.839Z,100886.97
2022-11-29T19:21:50.007Z,100886.72
2022-11-29T19:24:18.938Z,100896.03
2022-11-29T19:26:50.015Z,100899.72
2022-11-29T19:29:18.363Z,100892.81
2022-11-29T19:31:48.049Z,100892.00
2022-11-29T19:34:16.112Z,100893.47
2022-11-29T19:36:45.383Z,100890.47
2022-11-29T19:39:15.177Z,100891.50
2022-11-29T19:41:44.438Z,100890.91
2022-11-29T19:44:13.066Z,100886.91
2022-11-29T19:46:43.241Z,100888.13
2022-11-29T19:49:13.016Z,100889.41
2022-11-29T19:51:41.301Z,100893.84
2022-11-29T19:54:10.735Z,100894.31
2022-11-29T19:56:39.214Z,100892.66
2022-11-29T19:59:08.082Z,100900.03
2022-11-29T20:01:42.097Z,100898.41
2022-11-29T20:04:13.602Z,100898.84
2022-11-29T20:06:42.353Z,100903.53
2022-11-29T20:09:10.595Z,100902.75
2022-11-29T20:11:38.922Z,100905.38
2022-11-29T20:14:08.184Z,100900.91
2022-11-29T20:16:37.821Z,100907.81
2022-11-29T20:19:09.529Z,100910.44
2022-11-29T20:21:43.057Z,100914.69
2022-11-29T20:24:12.788Z,100912.66
2022-11-29T20:26:42.413Z,100911.81
2022-11-29T20:29:12.984Z,100911.03
2022-11-29T20:31:49.167Z,100907.81
2022-11-29T20:34:17.978Z,100908.81
2022-11-29T20:37:08.278Z,100906.19
2022-11-29T20:39:42.002Z,100909.84
2022-11-29T20:42:31.610Z,100913.53
2022-11-29T20:45:01.388Z,100917.19
2022-11-29T20:47:34.585Z,100912.72
2022-11-29T20:50:02.828Z,100917.78
2022-11-29T20:52:39.140Z,100917.19
2022-11-29T20:55:09.564Z,100913.16
2022-11-29T20:57:38.360Z,100918.06
2022-11-29T21:00:07.560Z,100925.41
2022-11-29T21:02:35.757Z,100922.16
2022-11-29T21:05:03.937Z,100927.44
2022-11-29T21:07:33.671Z,100925.84
2022-11-29T21:10:02.126Z,100931.13
2022-11-29T21:12:31.162Z,100939.84
2022-11-29T21:14:59.610Z,100935.97
2022-11-29T21:17:33.496Z,100941.63
2022-11-29T21:20:02.662Z,100944.63
2022-11-29T21:22:38.266Z,100940.72
2022-11-29T21:25:11.173Z,100941.53
2022-11-29T21:27:39.863Z,100939.50
2022-11-29T21:30:13.985Z,100949.25
2022-11-29T21:32:42.837Z,100939.50
2022-11-29T21:35:10.772Z,100940.28
2022-11-29T21:37:40.672Z,100941.91
2022-11-29T21:40:10.190Z,100945.16
2022-11-29T21:42:38.574Z,100944.94
2022-11-29T21:45:13.446Z,100951.22
2022-11-29T21:47:43.826Z,100952.84
2022-11-29T21:50:12.772Z,100954.91
2022-11-29T21:52:44.152Z,100954.47
2022-11-29T21:55:12.153Z,100947.56
2022-11-29T21:57:40.286Z,100946.97
2022-11-29T22:00:09.582Z,100948.00
2022-11-29T22:02:37.826Z,100950.72
2022-11-29T22:05:07.845Z,100956.56
2022-11-29T22:07:36.074Z,100962.06
2022-11-29T22:10:12.960Z,100959.44
2022-11-29T22:12:51.378Z,100958.84
2022-11-29T22:15:24.421Z,100951.34
2022-11-29T22:17:54.022Z,100946.06
2022-11-29T22:20:22.104Z,100946.91
2022-11-29T22:22:51.757Z,100946.06
2022-11-29T22:25:23.858Z,100950.56
2022-11-29T22:27:52.051Z,100951.34
2022-11-29T22:30:21.132Z,100946.06
2022-11-29T22:32:49.472Z,100942.44
2022-11-29T22:35:17.414Z,100945.28
2022-11-29T22:37:45.721Z,100943.44
2022-11-29T22:40:14.072Z,100941.25
2022-11-29T22:42:43.621Z,100946.97
2022-11-29T22:45:12.218Z,100943.69
2022-11-29T22:47:40.371Z,100954.69
2022-11-29T22:50:09.316Z,100947.00
2022-11-29T22:52:37.677Z,100949.84
2022-11-29T22:55:06.253Z,100953.31
2022-11-29T22:57:34.442Z,100953.09
2022-11-29T23:00:04.378Z,100947.81
2022-11-29T23:02:32.743Z,100956.72
2022-11-29T23:05:00.816Z,100947.81
2022-11-29T23:07:29.067Z,100954.69
2022-11-29T23:09:57.153Z,100959.13
2022-11-29T23:12:25.423Z,100943.66
2022-11-29T23:14:56.635Z,100947.72
2022-11-29T23:17:26.463Z,100955.78
2022-11-29T23:19:54.541Z,100955.78
2022-11-29T23:22:22.712Z,100955.78
2022-11-29T23:24:50.595Z,100956.19
2022-11-29T23:27:18.738Z,100955.63
2022-11-29T23:29:46.620Z,100958.28
2022-11-29T23:32:14.777Z,100957.22
2022-11-29T23:34:44.234Z,100962.06
2022-11-29T23:37:12.624Z,100959.22
2022-11-29T23:39:40.575Z,100957.38
2022-11-29T23:42:11.508Z,100953.38
2022-11-29T23:44:39.372Z,100953.00
2022-11-29T23:47:07.702Z,100947.72
2022-11-29T23:49:39.677Z,100949.53
2022-11-29T23:52:09.133Z,100953.00
2022-11-29T23:54:37.058Z,100945.06
2022-11-29T23:57:05.322Z,100949.31
2022-11-29T23:59:33.201Z,100951.34
